Time;durP1;ratioP1;P1;durP2;ratioP2;P2;SDS_P1;SDS_P2;PMS_P1;PMS_P2;Temp;Humidity;BMP_temperature;BMP_pressure;BME280_temperature;BME280_humidity;BME280_pressure;Samples;Min_cycle;Max_cycle;Signal;HPM_P1;HPM_P2
2023/04/13 00:01:15;;;;;;;2.80;1.33;;;17.40;99.90;;;;;;4952421;28;20196;-76
2023/04/13 00:03:46;;;;;;;2.17;1.35;;;17.30;99.90;;;;;;4949957;28;20237;-78
2023/04/13 00:06:21;;;;;;;3.72;1.85;;;17.30;99.90;;;;;;4954284;29;20208;-79
2023/04/13 00:08:53;;;;;;;3.47;2.03;;;17.30;99.90;;;;;;4954668;29;20239;-77
2023/04/13 00:11:26;;;;;;;2.75;1.50;;;17.30;99.90;;;;;;4952261;29;20208;-78
2023/04/13 00:13:57;;;;;;;2.30;1.40;;;17.40;99.90;;;;;;4953633;29;20201;-79
2023/04/13 00:16:30;;;;;;;3.13;1.50;;;17.40;99.90;;;;;;4954839;28;20205;-77
2023/04/13 00:19:02;;;;;;;5.43;1.30;;;17.50;99.90;;;;;;4951128;29;20662;-77
2023/04/13 00:21:36;;;;;;;4.07;2.33;;;17.50;99.90;;;;;;4950604;29;20197;-78
2023/04/13 00:24:08;;;;;;;6.07;3.22;;;17.60;99.90;;;;;;4954590;29;20189;-77
2023/04/13 00:26:39;;;;;;;2.67;1.40;;;17.70;99.90;;;;;;4952504;29;20206;-80
2023/04/13 00:29:10;;;;;;;4.82;1.48;;;17.80;99.90;;;;;;4954037;29;20193;-79
2023/04/13 00:31:41;;;;;;;3.15;1.40;;;18.00;99.90;;;;;;4952831;28;20201;-80
2023/04/13 00:34:12;;;;;;;2.35;1.30;;;18.30;99.90;;;;;;4953862;29;20208;-77
2023/04/13 00:36:45;;;;;;;3.55;1.20;;;18.50;99.90;;;;;;4950731;28;20197;-79
2023/04/13 00:39:21;;;;;;;4.40;1.30;;;18.60;99.90;;;;;;4940385;28;20588;-77
2023/04/13 00:41:53;;;;;;;3.65;1.38;;;18.80;99.90;;;;;;4953455;29;20248;-76
2023/04/13 00:44:24;;;;;;;4.07;0.80;;;18.90;99.90;;;;;;4948913;29;20197;-79
2023/04/13 00:46:55;;;;;;;3.13;0.80;;;19.10;99.90;;;;;;4957010;29;20193;-78
2023/04/13 00:49:26;;;;;;;2.97;0.90;;;19.20;99.90;;;;;;4955468;28;20212;-79
2023/04/13 00:52:00;;;;;;;4.10;0.70;;;19.40;99.90;;;;;;4948267;28;20224;-79
2023/04/13 00:54:32;;;;;;;2.50;0.55;;;19.50;99.90;;;;;;4950297;29;20208;-77
2023/04/13 00:57:03;;;;;;;3.10;0.60;;;19.90;99.90;;;;;;4949814;29;20208;-78
2023/04/13 00:59:35;;;;;;;4.53;0.90;;;20.20;99.90;;;;;;4952875;29;20232;-77
2023/04/13 01:02:06;;;;;;;1.20;0.60;;;20.30;99.90;;;;;;4950357;29;20245;-78
2023/04/13 01:04:37;;;;;;;3.15;0.77;;;20.30;99.90;;;;;;4945862;29;20233;-76
2023/04/13 01:07:16;;;;;;;3.95;0.70;;;20.40;99.90;;;;;;4938558;29;20197;-78
2023/04/13 01:09:53;;;;;;;4.78;0.80;;;20.60;99.90;;;;;;4938707;29;20198;-76
2023/04/13 01:12:33;;;;;;;3.65;0.70;;;20.80;99.90;;;;;;4938904;29;20657;-77
2023/04/13 01:15:07;;;;;;;3.38;0.88;;;21.10;99.90;;;;;;4938600;29;20650;-78
2023/04/13 01:17:40;;;;;;;1.33;0.60;;;21.30;99.90;;;;;;4938613;29;20193;-77
2023/04/13 01:20:14;;;;;;;3.20;0.65;;;21.50;99.90;;;;;;4938354;29;20684;-79
2023/04/13 01:22:54;;;;;;;3.42;0.55;;;21.60;99.90;;;;;;4938461;29;20225;-79
2023/04/13 01:25:32;;;;;;;3.40;0.60;;;21.70;99.90;;;;;;4938284;29;20198;-77
2023/04/13 01:28:08;;;;;;;1.42;0.50;;;21.80;99.90;;;;;;4938365;29;20212;-79
2023/04/13 01:30:40;;;;;;;1.48;0.50;;;21.80;99.90;;;;;;4938217;29;20281;-77
2023/04/13 01:33:15;;;;;;;2.75;0.50;;;21.70;99.90;;;;;;4948853;29;20208;-78
2023/04/13 01:35:47;;;;;;;2.20;0.50;;;21.60;99.90;;;;;;4957285;29;20192;-76
2023/04/13 01:38:24;;;;;;;1.52;0.47;;;21.60;99.90;;;;;;4957459;28;20207;-75
2023/04/13 01:40:55;;;;;;;3.83;0.60;;;21.50;99.90;;;;;;4957298;28;20699;-76
2023/04/13 01:43:29;;;;;;;2.75;0.70;;;21.40;99.90;;;;;;4957068;29;20649;-77
2023/04/13 01:46:05;;;;;;;1.30;0.50;;;21.50;99.90;;;;;;4957191;29;20196;-78
2023/04/13 01:48:43;;;;;;;2.13;0.70;;;21.50;99.90;;;;;;4953663;29;20685;-76
2023/04/13 01:51:18;;;;;;;2.03;0.50;;;21.60;99.90;;;;;;4956768;29;20216;-76
2023/04/13 01:53:54;;;;;;;2.60;0.50;;;21.70;99.90;;;;;;4956964;28;20271;-76
2023/04/13 01:56:26;;;;;;;2.90;0.70;;;21.90;99.90;;;;;;4957007;29;20232;-78
2023/04/13 01:59:00;;;;;;;2.85;0.60;;;22.00;99.90;;;;;;4956979;28;20216;-76
2023/04/13 02:01:31;;;;;;;4.80;0.68;;;22.10;99.90;;;;;;4956692;28;20244;-76
2023/04/13 02:04:03;;;;;;;1.67;0.47;;;22.20;99.90;;;;;;4956731;29;20193;-77
2023/04/13 02:06:34;;;;;;;6.50;0.65;;;22.30;99.90;;;;;;4956677;29;20197;-76
2023/04/13 02:09:07;;;;;;;1.80;0.50;;;22.40;99.90;;;;;;4953579;29;20554;-77
2023/04/13 02:11:42;;;;;;;6.55;0.60;;;22.50;99.90;;;;;;4956563;29;20629;-77
2023/04/13 02:14:15;;;;;;;3.50;0.55;;;22.40;99.90;;;;;;4956711;29;20196;-76
2023/04/13 02:16:47;;;;;;;1.98;0.60;;;22.30;99.90;;;;;;4956507;28;20197;-77
2023/04/13 02:19:18;;;;;;;3.55;0.50;;;22.20;99.90;;;;;;4956515;29;20319;-77
2023/04/13 02:21:50;;;;;;;1.02;0.40;;;22.30;99.90;;;;;;4956440;28;20228;-77
2023/04/13 02:24:21;;;;;;;1.83;0.50;;;22.60;99.90;;;;;;4956348;29;20610;-76
2023/04/13 02:26:52;;;;;;;3.47;0.60;;;22.70;99.90;;;;;;4948548;29;20197;-76
2023/04/13 02:29:25;;;;;;;2.40;0.65;;;22.80;99.90;;;;;;4948767;29;20231;-77
2023/04/13 02:31:56;;;;;;;2.75;0.40;;;22.70;99.90;;;;;;4955963;29;20196;-76
2023/04/13 02:34:28;;;;;;;2.40;0.60;;;22.70;99.90;;;;;;4956206;29;20248;-75
2023/04/13 02:36:59;;;;;;;4.95;0.60;;;22.70;99.90;;;;;;4956167;29;20240;-76
2023/04/13 02:39:30;;;;;;;2.75;0.55;;;22.60;99.90;;;;;;4956318;28;20200;-76
2023/04/13 02:42:01;;;;;;;3.10;0.50;;;22.70;99.90;;;;;;4956180;28;20227;-75
2023/04/13 02:44:35;;;;;;;4.32;0.80;;;22.70;99.90;;;;;;4956014;29;20188;-78
2023/04/13 02:47:06;;;;;;;1.23;0.50;;;22.70;99.90;;;;;;4956088;29;20189;-77
2023/04/13 02:49:37;;;;;;;5.80;0.75;;;22.70;99.90;;;;;;4956149;29;20193;-76
2023/04/13 02:52:11;;;;;;;4.40;0.50;;;22.60;99.90;;;;;;4956046;28;20197;-76
2023/04/13 02:54:42;;;;;;;5.45;0.60;;;22.60;99.90;;;;;;4955875;29;20235;-79
2023/04/13 02:57:14;;;;;;;5.65;1.33;;;22.60;99.90;;;;;;4956059;28;20637;-76
2023/04/13 02:59:47;;;;;;;3.03;0.60;;;22.60;99.90;;;;;;4956112;28;20193;-76
2023/04/13 03:02:18;;;;;;;1.92;0.50;;;22.50;99.90;;;;;;4955548;29;20243;-76
2023/04/13 03:04:49;;;;;;;2.72;0.45;;;22.50;99.90;;;;;;4955980;29;20272;-78
2023/04/13 03:07:20;;;;;;;3.45;0.60;;;22.50;99.90;;;;;;4949573;29;20207;-77
2023/04/13 03:09:51;;;;;;;2.65;0.70;;;22.40;99.90;;;;;;4955719;28;20208;-76
2023/04/13 03:12:25;;;;;;;2.35;0.50;;;22.30;99.90;;;;;;4955908;28;20288;-77
2023/04/13 03:15:01;;;;;;;2.58;0.70;;;22.40;99.90;;;;;;4954960;29;20247;-76
2023/04/13 03:17:32;;;;;;;5.00;0.93;;;22.40;99.90;;;;;;4953182;29;20220;-75
2023/04/13 03:20:07;;;;;;;2.85;1.02;;;22.30;99.90;;;;;;4955268;29;20653;-76
2023/04/13 03:22:39;;;;;;;3.13;0.60;;;22.40;99.90;;;;;;4947930;29;20204;-75
2023/04/13 03:25:10;;;;;;;2.35;0.40;;;22.50;99.90;;;;;;4951248;29;20569;-77
2023/04/13 03:27:41;;;;;;;4.07;0.75;;;22.50;99.90;;;;;;4951469;28;20220;-77
2023/04/13 03:30:17;;;;;;;2.55;0.60;;;22.70;99.90;;;;;;4941515;28;20208;-76
2023/04/13 03:32:48;;;;;;;3.45;0.70;;;22.50;99.90;;;;;;4948380;28;20263;-76
2023/04/13 03:35:19;;;;;;;2.17;0.50;;;22.40;99.90;;;;;;4953499;29;20216;-77
2023/04/13 03:37:50;;;;;;;1.70;0.40;;;22.30;99.90;;;;;;4954233;29;20566;-77
2023/04/13 03:40:21;;;;;;;4.47;0.70;;;22.10;99.90;;;;;;4953696;28;20692;-76
2023/04/13 03:42:52;;;;;;;2.35;0.55;;;22.20;99.90;;;;;;4954914;28;20201;-76
2023/04/13 03:45:25;;;;;;;1.23;0.40;;;22.30;99.90;;;;;;4953959;28;20696;-77
2023/04/13 03:47:56;;;;;;;1.98;0.60;;;22.40;99.90;;;;;;4954123;29;20563;-76
2023/04/13 03:50:28;;;;;;;3.83;0.95;;;22.40;99.90;;;;;;4954259;28;20209;-75
2023/04/13 03:52:59;;;;;;;2.45;0.50;;;22.50;99.90;;;;;;4953610;28;20216;-76
2023/04/13 03:55:30;;;;;;;2.97;0.50;;;22.60;99.90;;;;;;4952648;29;20818;-77
2023/04/13 03:58:01;;;;;;;4.13;0.47;;;22.60;99.90;;;;;;4948216;28;20196;-76
2023/04/13 04:00:34;;;;;;;4.00;0.60;;;22.70;99.90;;;;;;4953637;29;20220;-77
2023/04/13 04:03:05;;;;;;;3.10;0.60;;;22.70;99.90;;;;;;4953996;29;20248;-76
2023/04/13 04:05:36;;;;;;;1.33;0.45;;;22.70;99.90;;;;;;4954748;28;20193;-78
2023/04/13 04:08:07;;;;;;;2.08;0.57;;;22.60;99.90;;;;;;4955267;28;20204;-77
2023/04/13 04:10:38;;;;;;;2.88;0.63;;;22.60;99.90;;;;;;4955034;28;20216;-76
2023/04/13 04:13:09;;;;;;;4.97;0.60;;;22.70;99.90;;;;;;4954543;28;20201;-76
2023/04/13 04:15:42;;;;;;;3.33;0.60;;;22.60;99.90;;;;;;4953831;29;20223;-76
2023/04/13 04:18:14;;;;;;;4.60;0.65;;;22.60;99.90;;;;;;4954043;28;20205;-77
2023/04/13 04:20:45;;;;;;;3.67;0.93;;;22.50;99.90;;;;;;4956952;29;20232;-77
2023/04/13 04:23:16;;;;;;;5.53;0.82;;;22.50;99.90;;;;;;4957447;28;20553;-76
2023/04/13 04:25:47;;;;;;;2.97;0.60;;;22.50;99.90;;;;;;4957013;28;20240;-77
2023/04/13 04:28:18;;;;;;;4.45;0.60;;;22.40;99.90;;;;;;4955154;29;20201;-76
2023/04/13 04:30:53;;;;;;;1.85;0.60;;;22.40;99.90;;;;;;4957106;28;20547;-76
2023/04/13 04:33:24;;;;;;;3.30;0.70;;;22.30;99.90;;;;;;4953720;29;20200;-77
2023/04/13 04:35:55;;;;;;;3.20;0.68;;;22.40;99.90;;;;;;4957561;29;20200;-76
2023/04/13 04:38:26;;;;;;;1.55;0.57;;;22.40;99.90;;;;;;4958523;29;20189;-76
2023/04/13 04:41:00;;;;;;;2.15;0.50;;;22.40;99.90;;;;;;4958241;28;20629;-76
2023/04/13 04:43:34;;;;;;;8.45;0.80;;;22.40;99.90;;;;;;4956713;29;20205;-78
2023/04/13 04:46:07;;;;;;;2.38;0.65;;;22.40;99.90;;;;;;4957507;29;20209;-76
2023/04/13 04:48:39;;;;;;;2.40;0.60;;;22.50;99.90;;;;;;4958323;29;20409;-75
2023/04/13 04:51:10;;;;;;;2.78;0.52;;;22.50;99.90;;;;;;4956712;28;20217;-76
2023/04/13 04:53:41;;;;;;;3.42;0.63;;;22.40;99.90;;;;;;4942409;29;20272;-76
2023/04/13 04:56:12;;;;;;;4.93;0.63;;;22.30;99.90;;;;;;4946246;29;20209;-76
2023/04/13 04:58:44;;;;;;;1.60;0.50;;;22.30;99.90;;;;;;4957359;28;20291;-75
2023/04/13 05:01:17;;;;;;;3.25;0.47;;;22.20;99.90;;;;;;4957300;28;20225;-76
2023/04/13 05:03:48;;;;;;;3.13;0.60;;;22.20;99.90;;;;;;4957197;28;20234;-77
2023/04/13 05:06:19;;;;;;;3.85;0.60;;;22.20;99.90;;;;;;4956984;28;20552;-76
2023/04/13 05:08:50;;;;;;;3.78;0.50;;;22.10;99.90;;;;;;4957804;29;20189;-78
2023/04/13 05:11:22;;;;;;;1.30;0.40;;;22.00;99.90;;;;;;4956564;29;20208;-77
2023/04/13 05:13:54;;;;;;;2.42;0.55;;;21.90;99.90;;;;;;4956891;29;20224;-77
2023/04/13 05:16:29;;;;;;;6.28;0.70;;;21.90;99.90;;;;;;4942139;29;20248;-77
2023/04/13 05:19:00;;;;;;;2.22;0.80;;;21.90;99.90;;;;;;4957309;29;20648;-77
2023/04/13 05:21:31;;;;;;;2.67;0.50;;;21.90;99.90;;;;;;4956685;29;20228;-76
2023/04/13 05:24:02;;;;;;;2.78;0.70;;;21.90;99.90;;;;;;4955881;29;20684;-76
2023/04/13 05:26:33;;;;;;;3.75;0.77;;;22.00;99.90;;;;;;4956336;29;20547;-76
2023/04/13 05:29:05;;;;;;;2.80;0.60;;;22.10;99.90;;;;;;4957217;28;20660;-75
2023/04/13 05:31:38;;;;;;;3.47;0.70;;;22.20;99.90;;;;;;4956315;29;20573;-76
2023/04/13 05:34:10;;;;;;;2.78;0.60;;;22.10;99.90;;;;;;4956573;29;20193;-75
2023/04/13 05:36:41;;;;;;;2.83;0.52;;;21.90;99.90;;;;;;4956867;29;20276;-77
2023/04/13 05:39:12;;;;;;;1.17;0.40;;;21.80;99.90;;;;;;4956196;29;20200;-76
2023/04/13 05:41:43;;;;;;;2.83;0.60;;;21.70;99.90;;;;;;4956204;28;20299;-77
2023/04/13 05:44:14;;;;;;;2.80;0.45;;;21.60;99.90;;;;;;4955873;28;20213;-77
2023/04/13 05:46:49;;;;;;;2.35;0.50;;;21.60;99.90;;;;;;4955921;28;20189;-76
2023/04/13 05:49:20;;;;;;;2.60;0.50;;;21.60;99.90;;;;;;4954192;29;20223;-77
2023/04/13 05:51:53;;;;;;;3.10;0.65;;;21.70;99.90;;;;;;4955173;28;20216;-77
2023/04/13 05:54:24;;;;;;;2.88;0.57;;;21.70;99.90;;;;;;4956359;28;20275;-76
2023/04/13 05:56:55;;;;;;;3.28;0.38;;;21.70;99.90;;;;;;4954940;29;20208;-76
2023/04/13 05:59:26;;;;;;;2.58;0.60;;;21.70;99.90;;;;;;4950781;29;20201;-77
2023/04/13 06:02:01;;;;;;;2.53;0.65;;;21.70;99.90;;;;;;4956592;29;20315;-76
2023/04/13 06:04:34;;;;;;;2.20;0.47;;;21.70;99.90;;;;;;4955506;29;20355;-76
2023/04/13 06:07:06;;;;;;;4.07;0.70;;;21.70;99.90;;;;;;4956668;28;20205;-77
2023/04/13 06:09:40;;;;;;;6.53;0.50;;;21.70;99.90;;;;;;4955148;28;20208;-76
2023/04/13 06:12:11;;;;;;;4.10;0.90;;;21.70;99.90;;;;;;4955727;29;20205;-76
2023/04/13 06:14:43;;;;;;;3.55;0.70;;;21.70;99.90;;;;;;4955593;28;20201;-76
2023/04/13 06:17:16;;;;;;;4.40;0.70;;;21.70;99.90;;;;;;4956604;29;20204;-76
2023/04/13 06:19:47;;;;;;;3.00;0.60;;;21.60;99.90;;;;;;4955045;28;20657;-77
2023/04/13 06:22:18;;;;;;;3.13;0.50;;;21.50;99.90;;;;;;4954204;29;20221;-75
2023/04/13 06:24:49;;;;;;;3.55;0.60;;;21.30;99.90;;;;;;4956532;28;20668;-76
2023/04/13 06:27:21;;;;;;;1.90;0.50;;;21.20;99.90;;;;;;4956533;28;20203;-76
2023/04/13 06:29:52;;;;;;;1.60;0.60;;;21.20;99.90;;;;;;4954249;29;20665;-75
2023/04/13 06:32:25;;;;;;;3.10;0.57;;;21.20;99.90;;;;;;4952681;29;20202;-76
2023/04/13 06:34:56;;;;;;;2.72;0.50;;;21.10;99.90;;;;;;4955993;29;20209;-75
2023/04/13 06:37:27;;;;;;;2.50;0.70;;;21.10;99.90;;;;;;4955655;29;20196;-76
2023/04/13 06:40:01;;;;;;;5.25;0.73;;;21.20;99.90;;;;;;4954369;29;20209;-76
2023/04/13 06:42:33;;;;;;;1.77;0.60;;;21.20;99.90;;;;;;4955486;29;20220;-76
2023/04/13 06:45:04;;;;;;;4.05;0.68;;;21.10;99.90;;;;;;4954626;29;20216;-76
2023/04/13 06:47:39;;;;;;;3.92;0.45;;;21.20;99.90;;;;;;4953852;29;20219;-76
2023/04/13 06:50:12;;;;;;;5.18;0.50;;;21.20;99.90;;;;;;4954503;29;20216;-76
2023/04/13 06:52:45;;;;;;;5.38;0.60;;;21.20;99.90;;;;;;4955730;28;20680;-76
2023/04/13 06:55:16;;;;;;;2.80;0.70;;;21.10;99.90;;;;;;4956055;29;20200;-76
2023/04/13 06:57:47;;;;;;;5.78;0.90;;;20.90;99.90;;;;;;4950590;28;20731;-76
2023/04/13 07:00:19;;;;;;;4.45;0.90;;;20.60;99.90;;;;;;4954491;29;20208;-77
2023/04/13 07:02:52;;;;;;;5.63;1.00;;;20.30;99.90;;;;;;4953550;29;20612;-76
2023/04/13 07:05:23;;;;;;;5.40;1.08;;;20.10;99.90;;;;;;4950744;28;20228;-76
2023/04/13 07:07:54;;;;;;;11.57;1.30;;;19.80;99.90;;;;;;4952858;28;20201;-76
2023/04/13 07:10:26;;;;;;;4.65;1.13;;;19.70;99.90;;;;;;4955832;29;20196;-75
2023/04/13 07:12:57;;;;;;;2.58;0.75;;;19.40;99.90;;;;;;4954756;28;20205;-75
2023/04/13 07:15:28;;;;;;;2.50;0.80;;;19.20;99.90;;;;;;4954140;28;20286;-75
2023/04/13 07:18:01;;;;;;;4.50;1.08;;;19.00;99.90;;;;;;4954505;28;20212;-74
2023/04/13 07:20:33;;;;;;;6.05;1.40;;;18.90;99.90;;;;;;4953576;29;20216;-74
2023/04/13 07:23:04;;;;;;;7.13;1.30;;;18.80;99.90;;;;;;4954509;28;20223;-74
2023/04/13 07:25:37;;;;;;;7.40;1.98;;;18.70;99.90;;;;;;4954487;28;20208;-74
2023/04/13 07:28:08;;;;;;;8.13;1.27;;;18.70;99.90;;;;;;4955449;29;20205;-74
2023/04/13 07:30:39;;;;;;;2.65;1.02;;;18.70;99.90;;;;;;4955576;29;20203;-74
2023/04/13 07:33:12;;;;;;;5.72;1.08;;;18.60;99.90;;;;;;4952841;29;20201;-75
2023/04/13 07:35:43;;;;;;;4.15;0.73;;;18.60;99.90;;;;;;4954928;29;20240;-74
2023/04/13 07:38:14;;;;;;;5.50;0.73;;;18.60;99.90;;;;;;4953854;28;20578;-76
2023/04/13 07:40:45;;;;;;;7.15;0.90;;;18.60;99.90;;;;;;4955283;28;20554;-75
2023/04/13 07:43:16;;;;;;;6.07;0.98;;;18.60;99.90;;;;;;4955410;28;20598;-76
2023/04/13 07:45:47;;;;;;;5.22;0.77;;;18.60;99.90;;;;;;4954796;28;20197;-76
2023/04/13 07:48:20;;;;;;;8.52;1.00;;;18.60;99.90;;;;;;4955204;28;20200;-75
2023/04/13 07:50:52;;;;;;;7.10;1.17;;;18.60;99.90;;;;;;4955007;28;20201;-73
2023/04/13 07:53:23;;;;;;;5.15;0.98;;;18.60;99.90;;;;;;4951371;28;20228;-75
2023/04/13 07:55:54;;;;;;;6.05;1.27;;;18.60;99.90;;;;;;4949624;28;20196;-80
2023/04/13 07:58:25;;;;;;;5.63;1.27;;;18.60;99.90;;;;;;4945427;29;20201;-75
2023/04/13 08:00:56;;;;;;;5.80;1.35;;;18.60;99.90;;;;;;4948579;28;20200;-74
2023/04/13 08:03:32;;;;;;;7.43;1.30;;;18.60;99.90;;;;;;4946541;28;20244;-76
2023/04/13 08:06:03;;;;;;;6.90;1.27;;;18.70;99.90;;;;;;4950796;28;20209;-78
2023/04/13 08:08:34;;;;;;;7.35;1.30;;;18.70;99.90;;;;;;4953910;28;20192;-77
2023/04/13 08:11:05;;;;;;;5.85;1.48;;;18.70;99.90;;;;;;4947871;29;20208;-79
2023/04/13 08:13:37;;;;;;;6.32;1.90;;;18.70;99.90;;;;;;4952125;28;20226;-77
2023/04/13 08:16:08;;;;;;;6.97;1.60;;;18.70;99.90;;;;;;4953803;28;20661;-73
2023/04/13 08:18:41;;;;;;;5.03;1.15;;;18.70;99.90;;;;;;4952808;28;20683;-78
2023/04/13 08:21:13;;;;;;;5.60;1.13;;;18.70;99.90;;;;;;4952106;29;20201;-77
2023/04/13 08:23:45;;;;;;;5.82;1.20;;;18.70;99.90;;;;;;4951111;28;20216;-74
2023/04/13 08:26:25;;;;;;;5.75;1.10;;;18.70;99.90;;;;;;4954318;29;20623;-78
2023/04/13 08:28:56;;;;;;;5.75;0.90;;;18.80;99.90;;;;;;4953835;29;20271;-74
2023/04/13 08:31:27;;;;;;;5.10;1.23;;;18.80;99.90;;;;;;4949819;28;20197;-74
2023/04/13 08:34:00;;;;;;;3.33;1.10;;;18.70;99.90;;;;;;4947994;28;20200;-75
2023/04/13 08:36:31;;;;;;;4.78;1.30;;;18.70;99.90;;;;;;4950757;28;20650;-74
2023/04/13 08:39:04;;;;;;;5.15;1.20;;;18.70;99.90;;;;;;4952790;28;20197;-76
2023/04/13 08:41:39;;;;;;;5.57;1.00;;;18.70;99.90;;;;;;4951084;28;21050;-74
2023/04/13 08:44:10;;;;;;;3.75;1.15;;;18.60;99.90;;;;;;4952202;28;20201;-78
2023/04/13 08:46:42;;;;;;;4.63;1.33;;;18.60;99.90;;;;;;4952284;29;20215;-74
2023/04/13 08:49:15;;;;;;;5.75;1.25;;;18.60;99.90;;;;;;4953380;28;20205;-74
2023/04/13 08:51:47;;;;;;;6.53;1.38;;;18.60;99.90;;;;;;4954186;28;20212;-77
2023/04/13 08:54:18;;;;;;;3.78;1.10;;;18.60;99.90;;;;;;4952407;28;20735;-77
2023/04/13 08:56:49;;;;;;;3.22;1.20;;;18.60;99.90;;;;;;4951023;28;20565;-75
2023/04/13 08:59:21;;;;;;;4.63;1.27;;;18.60;99.90;;;;;;4953265;29;20228;-74
2023/04/13 09:01:53;;;;;;;4.38;1.15;;;18.60;99.90;;;;;;4953457;29;20236;-74
2023/04/13 09:04:31;;;;;;;5.20;1.27;;;18.60;99.90;;;;;;4952351;28;20652;-76
2023/04/13 09:07:05;;;;;;;3.05;1.10;;;18.60;99.90;;;;;;4946646;29;20288;-77
2023/04/13 09:09:41;;;;;;;5.18;1.38;;;18.60;99.90;;;;;;4954176;29;20201;-78
2023/04/13 09:12:12;;;;;;;4.68;1.40;;;18.60;99.90;;;;;;4946918;29;20323;-77
2023/04/13 09:14:45;;;;;;;5.85;1.38;;;18.60;99.90;;;;;;4954933;28;20201;-75
2023/04/13 09:17:26;;;;;;;4.00;1.38;;;18.60;99.90;;;;;;4955246;28;20204;-74
2023/04/13 09:20:12;;;;;;;3.92;1.55;;;18.50;99.90;;;;;;4956965;28;20719;-78
2023/04/13 09:22:43;;;;;;;6.25;1.30;;;18.50;99.90;;;;;;4955226;29;20223;-74
2023/04/13 09:25:24;;;;;;;3.95;1.27;;;18.50;99.90;;;;;;4953897;28;20197;-72
2023/04/13 09:27:56;;;;;;;4.45;1.50;;;18.50;99.90;;;;;;4957386;28;20193;-75
2023/04/13 09:30:28;;;;;;;6.05;1.95;;;18.50;99.90;;;;;;4954927;28;20197;-74
2023/04/13 09:33:09;;;;;;;4.85;1.73;;;18.50;99.90;;;;;;4945619;29;20330;-78
2023/04/13 09:35:42;;;;;;;6.07;2.20;;;18.50;99.90;;;;;;4954693;29;20196;-74
2023/04/13 09:38:15;;;;;;;3.92;1.80;;;18.50;99.90;;;;;;4947175;29;20201;-73
2023/04/13 09:40:56;;;;;;;5.88;2.08;;;18.50;99.90;;;;;;4956140;28;20637;-74
2023/04/13 09:43:37;;;;;;;5.72;1.75;;;18.40;99.90;;;;;;4952961;28;20228;-75
2023/04/13 09:46:15;;;;;;;5.15;1.85;;;18.40;99.90;;;;;;4956038;29;20205;-74
2023/04/13 09:48:46;;;;;;;4.88;1.85;;;18.40;99.90;;;;;;4954632;28;20204;-75
2023/04/13 09:51:19;;;;;;;4.63;1.70;;;18.40;99.90;;;;;;4954218;28;20205;-78
2023/04/13 09:53:50;;;;;;;5.85;1.80;;;18.40;99.90;;;;;;4952352;28;20586;-78
2023/04/13 09:56:23;;;;;;;6.13;1.83;;;18.40;99.90;;;;;;4948269;28;20200;-77
2023/04/13 09:58:54;;;;;;;4.45;1.73;;;18.40;99.90;;;;;;4952672;28;20606;-74
2023/04/13 10:01:26;;;;;;;5.00;2.10;;;18.40;99.90;;;;;;4954359;28;20633;-75
2023/04/13 10:03:57;;;;;;;6.40;2.00;;;18.40;99.90;;;;;;4955066;28;20586;-77
2023/04/13 10:06:33;;;;;;;4.43;1.60;;;18.40;99.90;;;;;;4954885;28;20212;-78
2023/04/13 10:09:06;;;;;;;4.85;1.70;;;18.40;99.90;;;;;;4955915;29;20653;-78
2023/04/13 10:11:40;;;;;;;4.20;1.50;;;18.40;99.90;;;;;;4953212;29;20239;-77
2023/04/13 10:14:16;;;;;;;5.40;1.77;;;18.30;99.90;;;;;;4955341;28;20248;-74
2023/04/13 10:17:06;;;;;;;7.18;2.22;;;18.30;99.90;;;;;;4944193;28;20197;-74
2023/04/13 10:19:41;;;;;;;4.78;2.00;;;18.30;99.90;;;;;;4951977;29;20200;-77
2023/04/13 10:22:16;;;;;;;5.93;1.70;;;18.30;99.90;;;;;;4947097;28;20204;-74
2023/04/13 10:24:47;;;;;;;4.93;1.52;;;18.20;99.90;;;;;;4953681;28;20201;-73
2023/04/13 10:27:19;;;;;;;4.40;1.42;;;18.20;99.90;;;;;;4955260;28;20205;-74
2023/04/13 10:29:51;;;;;;;4.30;1.00;;;18.20;99.90;;;;;;4946690;28;20197;-75
2023/04/13 10:32:26;;;;;;;3.70;1.13;;;18.20;99.90;;;;;;4954552;28;20201;-75
2023/04/13 10:34:57;;;;;;;3.70;1.27;;;18.20;99.90;;;;;;4951680;29;20196;-75
2023/04/13 10:37:31;;;;;;;3.78;1.20;;;18.20;99.90;;;;;;4953879;28;20212;-75
2023/04/13 10:40:07;;;;;;;2.85;1.10;;;18.10;99.90;;;;;;4951407;29;20212;-76
2023/04/13 10:42:46;;;;;;;6.13;1.40;;;18.20;99.90;;;;;;4951176;28;20303;-76
2023/04/13 10:45:22;;;;;;;3.20;1.40;;;18.20;99.90;;;;;;4953010;28;20205;-74
2023/04/13 10:47:54;;;;;;;6.22;1.70;;;18.20;99.90;;;;;;4954710;28;20660;-73
2023/04/13 10:50:27;;;;;;;4.03;1.30;;;18.10;99.90;;;;;;4952660;28;20201;-73
2023/04/13 10:53:03;;;;;;;3.70;1.40;;;18.10;99.90;;;;;;4954857;28;20275;-77
2023/04/13 10:55:35;;;;;;;3.42;1.50;;;18.10;99.90;;;;;;4954696;28;20196;-74
2023/04/13 10:58:16;;;;;;;3.97;1.50;;;18.10;99.90;;;;;;4953555;28;20197;-74
2023/04/13 11:00:49;;;;;;;5.28;1.60;;;18.10;99.90;;;;;;4949947;29;20197;-76
2023/04/13 11:03:20;;;;;;;3.47;1.40;;;18.10;99.90;;;;;;4953919;29;20264;-74
2023/04/13 11:05:59;;;;;;;3.92;1.50;;;18.20;99.90;;;;;;4955687;28;20209;-76
2023/04/13 11:08:33;;;;;;;3.22;1.38;;;18.10;99.90;;;;;;4953809;28;20243;-74
2023/04/13 11:11:04;;;;;;;3.97;1.38;;;18.10;99.90;;;;;;4952728;29;20211;-75
2023/04/13 11:13:35;;;;;;;3.92;1.38;;;18.10;99.90;;;;;;4955477;28;20212;-78
2023/04/13 11:16:07;;;;;;;6.20;1.40;;;18.10;99.90;;;;;;4955779;28;20212;-74
2023/04/13 11:18:38;;;;;;;5.32;1.42;;;18.40;99.90;;;;;;4953319;29;20205;-75
2023/04/13 11:21:17;;;;;;;4.50;1.50;;;18.10;99.90;;;;;;4953686;29;20193;-75
2023/04/13 11:24:00;;;;;;;4.03;1.45;;;18.00;99.90;;;;;;4953801;29;20574;-78
2023/04/13 11:26:38;;;;;;;7.07;1.42;;;18.00;99.90;;;;;;4943181;28;20212;-74
2023/04/13 11:29:18;;;;;;;5.47;1.38;;;18.00;99.90;;;;;;4953932;28;20201;-74
2023/04/13 11:31:49;;;;;;;5.20;1.40;;;18.00;99.90;;;;;;4950840;29;20200;-73
2023/04/13 11:34:27;;;;;;;3.40;1.27;;;18.00;99.90;;;;;;4949006;29;20205;-74
2023/04/13 11:37:06;;;;;;;4.80;1.45;;;18.00;99.90;;;;;;4954427;28;20609;-74
2023/04/13 11:39:42;;;;;;;4.80;1.30;;;18.00;99.90;;;;;;4952633;29;20201;-76
2023/04/13 11:42:14;;;;;;;6.85;1.80;;;18.00;99.90;;;;;;4953974;29;20547;-73
2023/04/13 11:44:45;;;;;;;6.65;1.48;;;17.90;99.90;;;;;;4954791;28;20584;-76
2023/04/13 11:47:19;;;;;;;4.13;1.30;;;17.90;99.90;;;;;;4953618;29;20204;-76
2023/04/13 11:49:50;;;;;;;5.55;1.33;;;17.90;99.90;;;;;;4954095;28;20193;-73
2023/04/13 11:52:21;;;;;;;2.83;1.20;;;17.80;99.90;;;;;;4954832;29;20224;-77
2023/04/13 11:54:55;;;;;;;3.42;1.10;;;17.90;99.90;;;;;;4954970;28;20240;-74
2023/04/13 11:57:27;;;;;;;1.90;1.00;;;17.80;99.90;;;;;;4941151;29;20196;-78
2023/04/13 11:59:58;;;;;;;4.05;1.55;;;17.80;99.90;;;;;;4955180;28;20191;-77
2023/04/13 12:02:31;;;;;;;3.95;1.58;;;17.80;99.90;;;;;;4955006;28;20245;-73
2023/04/13 12:05:02;;;;;;;2.55;1.15;;;17.80;99.90;;;;;;4954725;29;20221;-78
2023/04/13 12:07:34;;;;;;;6.63;1.30;;;17.80;99.90;;;;;;4954904;29;20200;-73
2023/04/13 12:10:08;;;;;;;3.03;1.20;;;17.80;99.90;;;;;;4954999;28;20244;-73
2023/04/13 12:12:39;;;;;;;5.35;1.30;;;17.70;99.90;;;;;;4954885;29;20192;-72
2023/04/13 12:15:11;;;;;;;4.13;1.20;;;17.70;99.90;;;;;;4955125;29;20203;-73
2023/04/13 12:17:42;;;;;;;3.25;1.13;;;17.70;99.90;;;;;;4955208;29;20237;-73
2023/04/13 12:20:17;;;;;;;3.10;1.23;;;17.70;99.90;;;;;;4954788;29;20189;-77
2023/04/13 12:22:48;;;;;;;4.40;1.33;;;17.70;99.90;;;;;;4954633;29;20193;-72
2023/04/13 12:25:22;;;;;;;5.72;1.20;;;17.70;99.90;;;;;;4951741;28;20571;-75
2023/04/13 12:27:54;;;;;;;5.35;1.27;;;17.70;99.90;;;;;;4951706;29;20626;-72
2023/04/13 12:30:27;;;;;;;3.97;1.10;;;17.70;99.90;;;;;;4951449;28;20201;-73
2023/04/13 12:32:58;;;;;;;1.55;0.82;;;17.70;99.90;;;;;;4952075;28;20204;-72
2023/04/13 12:35:29;;;;;;;3.58;0.95;;;17.70;99.90;;;;;;4945809;29;20564;-72
2023/04/13 12:38:01;;;;;;;2.90;0.90;;;17.70;99.90;;;;;;4951978;28;20207;-72
2023/04/13 12:40:34;;;;;;;4.35;1.17;;;17.70;99.90;;;;;;4957201;29;20252;-73
2023/04/13 12:43:05;;;;;;;4.00;0.80;;;17.70;99.90;;;;;;4958397;28;20193;-77
2023/04/13 12:45:36;;;;;;;4.65;0.70;;;17.70;99.90;;;;;;4958142;29;20205;-75
2023/04/13 12:48:07;;;;;;;3.58;0.70;;;17.70;99.90;;;;;;4964280;28;20192;-73
2023/04/13 12:50:39;;;;;;;6.43;0.80;;;17.60;99.90;;;;;;4952793;28;20201;-73
2023/04/13 12:53:10;;;;;;;2.47;0.63;;;17.60;99.90;;;;;;4958095;28;20216;-76
2023/04/13 12:55:44;;;;;;;2.83;0.65;;;17.60;99.90;;;;;;4950649;29;20200;-72
2023/04/13 12:58:15;;;;;;;6.18;1.20;;;17.60;99.90;;;;;;4938987;29;20559;-73
2023/04/13 13:00:46;;;;;;;4.07;1.00;;;17.60;99.90;;;;;;4939047;29;20661;-73
2023/04/13 13:03:17;;;;;;;2.67;0.70;;;17.60;99.90;;;;;;4957626;29;20244;-75
2023/04/13 13:05:49;;;;;;;4.32;1.00;;;17.60;99.90;;;;;;4957840;28;20197;-73
2023/04/13 13:08:20;;;;;;;4.00;0.90;;;17.60;99.90;;;;;;4957806;28;20193;-74
2023/04/13 13:10:53;;;;;;;4.18;0.80;;;17.60;99.90;;;;;;4957932;28;20189;-73
2023/04/13 13:13:24;;;;;;;2.22;0.73;;;17.60;99.90;;;;;;4957694;29;20646;-73
2023/04/13 13:15:55;;;;;;;1.45;0.63;;;17.60;99.90;;;;;;4957900;28;20197;-75